Terminal Aerodrome Forecast
Issued by NWS Boston, MA

Home | Current Version | Previous Version | Text Only | Print | Product List | Glossary On
Versions: 1 2 3 4 5 6 7 8 9 10 11 12 13 14 15 16 17 18 19 20 21 22 23 24
000
FTUS41 KBOX 261725
TAFORH
TAF
KORH 261725Z 2618/2718 08008KT P6SM VCSH OVC060
     FM262000 07007KT P6SM -RA OVC050
     FM262200 07007KT P6SM VCSH OVC045
     FM270100 09006KT P6SM OVC045
     FM270500 10006KT P6SM -FZRA OVC035
     FM270900 10006KT 3SM -FZRA OVC010
     FM271200 09005KT 2SM -RA BR OVC008
     FM271600 13005KT 2SM -RA BR OVC008=

USA.gov is the U.S. government's official web portal to all federal, state and local government web resources and services.